sensor_id;sensor_type;location;lat;lon;timestamp;P1;durP1;ratioP1;P2;durP2;ratioP2
45206;SDS011;30950;53.086;21.576;2022-09-02T00:02:22;5.20;;;2.47;;
45206;SDS011;30950;53.086;21.576;2022-09-02T00:04:50;9.85;;;3.30;;
45206;SDS011;30950;53.086;21.576;2022-09-02T00:07:18;4.63;;;2.50;;
45206;SDS011;30950;53.086;21.576;2022-09-02T00:09:45;4.35;;;2.58;;
45206;SDS011;30950;53.086;21.576;2022-09-02T00:12:12;5.88;;;2.30;;
45206;SDS011;30950;53.086;21.576;2022-09-02T00:14:39;4.75;;;2.67;;
45206;SDS011;30950;53.086;21.576;2022-09-02T00:17:07;8.27;;;2.50;;
45206;SDS011;30950;53.086;21.576;2022-09-02T00:19:35;5.13;;;2.83;;
45206;SDS011;30950;53.086;21.576;2022-09-02T00:22:03;3.65;;;2.40;;
45206;SDS011;30950;53.086;21.576;2022-09-02T00:24:31;4.88;;;2.33;;
45206;SDS011;30950;53.086;21.576;2022-09-02T00:26:58;6.82;;;3.15;;
45206;SDS011;30950;53.086;21.576;2022-09-02T00:29:26;5.20;;;2.65;;
45206;SDS011;30950;53.086;21.576;2022-09-02T00:31:54;6.32;;;3.28;;
45206;SDS011;30950;53.086;21.576;2022-09-02T00:34:22;4.63;;;2.63;;
45206;SDS011;30950;53.086;21.576;2022-09-02T00:36:50;5.10;;;2.90;;
45206;SDS011;30950;53.086;21.576;2022-09-02T00:39:18;6.22;;;2.97;;
45206;SDS011;30950;53.086;21.576;2022-09-02T00:41:45;5.05;;;3.22;;
45206;SDS011;30950;53.086;21.576;2022-09-02T00:44:14;4.80;;;2.83;;
45206;SDS011;30950;53.086;21.576;2022-09-02T00:46:43;4.45;;;3.00;;
45206;SDS011;30950;53.086;21.576;2022-09-02T00:49:15;5.07;;;3.17;;
45206;SDS011;30950;53.086;21.576;2022-09-02T00:54:31;4.90;;;2.83;;
45206;SDS011;30950;53.086;21.576;2022-09-02T00:57:02;5.22;;;3.13;;
45206;SDS011;30950;53.086;21.576;2022-09-02T01:02:22;5.28;;;2.90;;
45206;SDS011;30950;53.086;21.576;2022-09-02T01:04:51;5.50;;;3.08;;
45206;SDS011;30950;53.086;21.576;2022-09-02T01:07:26;5.43;;;2.70;;
45206;SDS011;30950;53.086;21.576;2022-09-02T01:09:58;5.95;;;3.30;;
45206;SDS011;30950;53.086;21.576;2022-09-02T01:12:28;3.97;;;2.55;;
45206;SDS011;30950;53.086;21.576;2022-09-02T01:14:56;5.63;;;3.05;;
45206;SDS011;30950;53.086;21.576;2022-09-02T01:17:24;4.95;;;2.95;;
45206;SDS011;30950;53.086;21.576;2022-09-02T01:19:55;4.78;;;2.75;;
45206;SDS011;30950;53.086;21.576;2022-09-02T01:22:28;4.78;;;2.70;;
45206;SDS011;30950;53.086;21.576;2022-09-02T01:25:00;4.70;;;3.00;;
45206;SDS011;30950;53.086;21.576;2022-09-02T01:27:31;5.05;;;2.70;;
45206;SDS011;30950;53.086;21.576;2022-09-02T01:29:58;4.93;;;3.08;;
45206;SDS011;30950;53.086;21.576;2022-09-02T01:32:27;4.30;;;2.95;;
45206;SDS011;30950;53.086;21.576;2022-09-02T01:34:56;6.07;;;2.60;;
45206;SDS011;30950;53.086;21.576;2022-09-02T01:37:26;5.65;;;2.70;;
45206;SDS011;30950;53.086;21.576;2022-09-02T01:39:53;6.18;;;3.28;;
45206;SDS011;30950;53.086;21.576;2022-09-02T01:42:23;5.13;;;2.75;;
45206;SDS011;30950;53.086;21.576;2022-09-02T01:44:51;3.97;;;2.67;;
45206;SDS011;30950;53.086;21.576;2022-09-02T01:47:21;6.57;;;2.40;;
45206;SDS011;30950;53.086;21.576;2022-09-02T01:49:51;5.32;;;2.38;;
45206;SDS011;30950;53.086;21.576;2022-09-02T01:52:20;5.35;;;2.58;;
45206;SDS011;30950;53.086;21.576;2022-09-02T01:54:49;4.85;;;2.80;;
45206;SDS011;30950;53.086;21.576;2022-09-02T01:57:17;3.90;;;2.60;;
45206;SDS011;30950;53.086;21.576;2022-09-02T01:59:45;4.63;;;2.50;;
45206;SDS011;30950;53.086;21.576;2022-09-02T02:02:15;4.72;;;2.53;;
45206;SDS011;30950;53.086;21.576;2022-09-02T02:04:48;4.05;;;2.70;;
45206;SDS011;30950;53.086;21.576;2022-09-02T02:07:17;5.80;;;2.90;;
45206;SDS011;30950;53.086;21.576;2022-09-02T02:09:46;5.18;;;2.80;;
45206;SDS011;30950;53.086;21.576;2022-09-02T02:12:15;4.05;;;2.88;;
45206;SDS011;30950;53.086;21.576;2022-09-02T02:14:42;6.13;;;2.65;;
45206;SDS011;30950;53.086;21.576;2022-09-02T02:17:10;6.95;;;3.33;;
45206;SDS011;30950;53.086;21.576;2022-09-02T02:19:38;5.55;;;3.00;;
45206;SDS011;30950;53.086;21.576;2022-09-02T02:22:06;5.15;;;2.90;;
45206;SDS011;30950;53.086;21.576;2022-09-02T02:24:33;4.22;;;2.58;;
45206;SDS011;30950;53.086;21.576;2022-09-02T02:27:01;5.53;;;3.30;;
45206;SDS011;30950;53.086;21.576;2022-09-02T02:29:28;5.35;;;2.80;;
45206;SDS011;30950;53.086;21.576;2022-09-02T02:31:57;5.68;;;3.10;;
45206;SDS011;30950;53.086;21.576;2022-09-02T02:34:24;4.60;;;2.88;;
45206;SDS011;30950;53.086;21.576;2022-09-02T02:36:52;7.68;;;2.97;;
45206;SDS011;30950;53.086;21.576;2022-09-02T02:39:19;6.30;;;3.75;;
45206;SDS011;30950;53.086;21.576;2022-09-02T02:41:47;4.95;;;2.80;;
45206;SDS011;30950;53.086;21.576;2022-09-02T02:44:15;5.20;;;2.90;;
45206;SDS011;30950;53.086;21.576;2022-09-02T02:46:43;4.47;;;2.60;;
45206;SDS011;30950;53.086;21.576;2022-09-02T02:49:11;6.47;;;2.80;;
45206;SDS011;30950;53.086;21.576;2022-09-02T02:51:39;3.88;;;2.70;;
45206;SDS011;30950;53.086;21.576;2022-09-02T02:54:07;4.93;;;3.10;;
45206;SDS011;30950;53.086;21.576;2022-09-02T02:56:36;4.25;;;2.85;;
45206;SDS011;30950;53.086;21.576;2022-09-02T02:59:03;5.45;;;3.70;;
45206;SDS011;30950;53.086;21.576;2022-09-02T03:01:32;5.10;;;2.80;;
45206;SDS011;30950;53.086;21.576;2022-09-02T03:04:01;4.57;;;2.63;;
45206;SDS011;30950;53.086;21.576;2022-09-02T03:06:29;4.63;;;2.97;;
45206;SDS011;30950;53.086;21.576;2022-09-02T03:08:57;6.45;;;2.90;;
45206;SDS011;30950;53.086;21.576;2022-09-02T03:11:26;5.43;;;2.80;;
45206;SDS011;30950;53.086;21.576;2022-09-02T03:13:55;5.07;;;2.88;;
45206;SDS011;30950;53.086;21.576;2022-09-02T03:16:23;5.22;;;3.00;;
45206;SDS011;30950;53.086;21.576;2022-09-02T03:18:53;4.38;;;2.90;;
45206;SDS011;30950;53.086;21.576;2022-09-02T03:21:20;6.15;;;3.33;;
45206;SDS011;30950;53.086;21.576;2022-09-02T03:23:48;5.53;;;3.42;;
45206;SDS011;30950;53.086;21.576;2022-09-02T03:26:17;5.13;;;3.20;;
45206;SDS011;30950;53.086;21.576;2022-09-02T03:28:47;6.22;;;3.35;;
45206;SDS011;30950;53.086;21.576;2022-09-02T03:31:17;5.75;;;3.10;;
45206;SDS011;30950;53.086;21.576;2022-09-02T03:33:46;5.75;;;3.75;;
45206;SDS011;30950;53.086;21.576;2022-09-02T03:38:50;7.85;;;4.00;;
45206;SDS011;30950;53.086;21.576;2022-09-02T03:41:17;7.25;;;3.20;;
45206;SDS011;30950;53.086;21.576;2022-09-02T03:43:46;7.70;;;3.38;;
45206;SDS011;30950;53.086;21.576;2022-09-02T03:46:14;7.38;;;3.67;;
45206;SDS011;30950;53.086;21.576;2022-09-02T03:48:43;7.60;;;3.60;;
45206;SDS011;30950;53.086;21.576;2022-09-02T03:51:12;8.25;;;3.70;;
45206;SDS011;30950;53.086;21.576;2022-09-02T03:53:40;5.40;;;3.15;;
45206;SDS011;30950;53.086;21.576;2022-09-02T03:56:10;6.90;;;4.68;;
45206;SDS011;30950;53.086;21.576;2022-09-02T03:58:42;8.48;;;3.83;;
45206;SDS011;30950;53.086;21.576;2022-09-02T04:01:13;4.45;;;3.20;;
45206;SDS011;30950;53.086;21.576;2022-09-02T04:03:42;6.30;;;3.20;;
45206;SDS011;30950;53.086;21.576;2022-09-02T04:06:10;5.85;;;3.50;;
45206;SDS011;30950;53.086;21.576;2022-09-02T04:08:40;5.25;;;3.20;;
45206;SDS011;30950;53.086;21.576;2022-09-02T04:11:10;5.63;;;3.65;;
45206;SDS011;30950;53.086;21.576;2022-09-02T04:13:45;6.05;;;3.63;;
45206;SDS011;30950;53.086;21.576;2022-09-02T04:16:17;6.97;;;3.78;;
45206;SDS011;30950;53.086;21.576;2022-09-02T04:18:47;5.28;;;3.47;;
45206;SDS011;30950;53.086;21.576;2022-09-02T04:21:14;8.52;;;4.07;;
45206;SDS011;30950;53.086;21.576;2022-09-02T04:23:42;6.75;;;3.88;;
45206;SDS011;30950;53.086;21.576;2022-09-02T04:26:11;6.15;;;4.20;;
45206;SDS011;30950;53.086;21.576;2022-09-02T04:28:41;6.50;;;3.72;;
45206;SDS011;30950;53.086;21.576;2022-09-02T04:31:09;5.90;;;4.20;;
45206;SDS011;30950;53.086;21.576;2022-09-02T04:33:40;5.45;;;4.07;;
45206;SDS011;30950;53.086;21.576;2022-09-02T04:36:12;7.03;;;4.03;;
45206;SDS011;30950;53.086;21.576;2022-09-02T04:38:43;6.60;;;4.78;;
45206;SDS011;30950;53.086;21.576;2022-09-02T04:41:16;5.32;;;3.83;;
45206;SDS011;30950;53.086;21.576;2022-09-02T04:43:48;6.30;;;4.28;;
45206;SDS011;30950;53.086;21.576;2022-09-02T04:46:18;6.63;;;4.15;;
45206;SDS011;30950;53.086;21.576;2022-09-02T04:49:00;5.40;;;4.05;;
45206;SDS011;30950;53.086;21.576;2022-09-02T04:51:30;6.63;;;4.25;;
45206;SDS011;30950;53.086;21.576;2022-09-02T04:54:00;6.07;;;4.20;;
45206;SDS011;30950;53.086;21.576;2022-09-02T04:56:29;8.80;;;4.60;;
45206;SDS011;30950;53.086;21.576;2022-09-02T04:59:00;5.57;;;4.18;;
45206;SDS011;30950;53.086;21.576;2022-09-02T05:01:29;5.38;;;4.28;;
45206;SDS011;30950;53.086;21.576;2022-09-02T05:04:05;8.13;;;4.43;;
45206;SDS011;30950;53.086;21.576;2022-09-02T05:06:39;6.53;;;5.05;;
45206;SDS011;30950;53.086;21.576;2022-09-02T05:09:14;6.60;;;4.65;;
45206;SDS011;30950;53.086;21.576;2022-09-02T05:11:45;7.03;;;4.75;;
45206;SDS011;30950;53.086;21.576;2022-09-02T05:14:16;8.25;;;4.97;;
45206;SDS011;30950;53.086;21.576;2022-09-02T05:16:43;7.38;;;5.05;;
45206;SDS011;30950;53.086;21.576;2022-09-02T05:19:14;9.13;;;5.63;;
45206;SDS011;30950;53.086;21.576;2022-09-02T05:21:46;6.50;;;4.78;;
45206;SDS011;30950;53.086;21.576;2022-09-02T05:24:22;9.37;;;5.80;;
45206;SDS011;30950;53.086;21.576;2022-09-02T05:26:54;6.95;;;4.40;;
45206;SDS011;30950;53.086;21.576;2022-09-02T05:29:24;6.65;;;4.43;;
45206;SDS011;30950;53.086;21.576;2022-09-02T05:31:54;6.82;;;4.43;;
45206;SDS011;30950;53.086;21.576;2022-09-02T05:34:23;6.35;;;4.40;;
45206;SDS011;30950;53.086;21.576;2022-09-02T05:36:52;7.30;;;4.75;;
45206;SDS011;30950;53.086;21.576;2022-09-02T05:39:20;5.18;;;4.53;;
45206;SDS011;30950;53.086;21.576;2022-09-02T05:41:48;7.60;;;4.78;;
45206;SDS011;30950;53.086;21.576;2022-09-02T05:44:16;6.38;;;4.60;;
45206;SDS011;30950;53.086;21.576;2022-09-02T05:46:44;7.78;;;4.20;;
45206;SDS011;30950;53.086;21.576;2022-09-02T05:49:15;8.63;;;5.32;;
45206;SDS011;30950;53.086;21.576;2022-09-02T05:51:52;5.60;;;3.73;;
45206;SDS011;30950;53.086;21.576;2022-09-02T05:54:29;5.57;;;3.58;;
45206;SDS011;30950;53.086;21.576;2022-09-02T05:57:02;5.60;;;3.60;;
45206;SDS011;30950;53.086;21.576;2022-09-02T05:59:36;4.93;;;3.17;;
45206;SDS011;30950;53.086;21.576;2022-09-02T06:02:11;10.18;;;5.07;;
45206;SDS011;30950;53.086;21.576;2022-09-02T06:04:42;6.00;;;3.70;;
45206;SDS011;30950;53.086;21.576;2022-09-02T06:07:12;7.93;;;4.05;;
45206;SDS011;30950;53.086;21.576;2022-09-02T06:09:43;6.60;;;3.67;;
45206;SDS011;30950;53.086;21.576;2022-09-02T06:12:11;5.57;;;3.58;;
45206;SDS011;30950;53.086;21.576;2022-09-02T06:14:40;6.57;;;3.70;;
45206;SDS011;30950;53.086;21.576;2022-09-02T06:17:10;6.75;;;4.10;;
45206;SDS011;30950;53.086;21.576;2022-09-02T06:19:44;11.90;;;5.30;;
45206;SDS011;30950;53.086;21.576;2022-09-02T06:22:12;9.98;;;6.07;;
45206;SDS011;30950;53.086;21.576;2022-09-02T06:24:41;12.35;;;6.30;;
45206;SDS011;30950;53.086;21.576;2022-09-02T06:27:15;12.10;;;7.82;;
45206;SDS011;30950;53.086;21.576;2022-09-02T06:29:45;10.20;;;7.45;;
45206;SDS011;30950;53.086;21.576;2022-09-02T06:32:18;15.82;;;8.57;;
45206;SDS011;30950;53.086;21.576;2022-09-02T06:34:47;12.82;;;8.48;;
45206;SDS011;30950;53.086;21.576;2022-09-02T06:37:15;14.15;;;8.80;;
45206;SDS011;30950;53.086;21.576;2022-09-02T06:39:43;12.88;;;7.55;;
45206;SDS011;30950;53.086;21.576;2022-09-02T06:42:17;12.07;;;6.78;;
45206;SDS011;30950;53.086;21.576;2022-09-02T06:45:02;16.48;;;7.30;;
45206;SDS011;30950;53.086;21.576;2022-09-02T06:47:31;13.98;;;5.72;;
45206;SDS011;30950;53.086;21.576;2022-09-02T06:49:58;9.75;;;5.97;;
45206;SDS011;30950;53.086;21.576;2022-09-02T06:52:27;10.25;;;5.38;;
45206;SDS011;30950;53.086;21.576;2022-09-02T06:54:54;8.52;;;4.82;;
45206;SDS011;30950;53.086;21.576;2022-09-02T06:57:22;8.82;;;4.60;;
45206;SDS011;30950;53.086;21.576;2022-09-02T07:00:05;6.32;;;4.20;;
45206;SDS011;30950;53.086;21.576;2022-09-02T07:02:35;6.38;;;3.75;;
45206;SDS011;30950;53.086;21.576;2022-09-02T07:05:04;3.53;;;2.28;;
45206;SDS011;30950;53.086;21.576;2022-09-02T07:07:43;4.53;;;2.22;;
45206;SDS011;30950;53.086;21.576;2022-09-02T07:10:14;5.38;;;2.40;;
45206;SDS011;30950;53.086;21.576;2022-09-02T07:12:50;7.78;;;2.75;;
45206;SDS011;30950;53.086;21.576;2022-09-02T07:15:17;4.47;;;2.50;;
45206;SDS011;30950;53.086;21.576;2022-09-02T07:17:45;3.28;;;2.03;;
45206;SDS011;30950;53.086;21.576;2022-09-02T07:20:25;3.83;;;2.15;;
45206;SDS011;30950;53.086;21.576;2022-09-02T07:22:57;7.75;;;2.38;;
45206;SDS011;30950;53.086;21.576;2022-09-02T07:25:28;3.95;;;2.28;;
45206;SDS011;30950;53.086;21.576;2022-09-02T07:27:57;4.05;;;2.10;;
45206;SDS011;30950;53.086;21.576;2022-09-02T07:30:26;4.30;;;2.15;;
45206;SDS011;30950;53.086;21.576;2022-09-02T07:33:01;3.75;;;2.10;;
45206;SDS011;30950;53.086;21.576;2022-09-02T07:35:29;4.88;;;2.35;;
45206;SDS011;30950;53.086;21.576;2022-09-02T07:37:57;4.72;;;2.10;;
45206;SDS011;30950;53.086;21.576;2022-09-02T07:40:25;8.98;;;2.05;;
45206;SDS011;30950;53.086;21.576;2022-09-02T07:42:53;3.45;;;2.10;;
45206;SDS011;30950;53.086;21.576;2022-09-02T07:45:24;3.05;;;1.92;;
45206;SDS011;30950;53.086;21.576;2022-09-02T07:47:52;4.68;;;1.80;;
45206;SDS011;30950;53.086;21.576;2022-09-02T07:50:22;3.05;;;2.33;;
45206;SDS011;30950;53.086;21.576;2022-09-02T07:52:54;3.58;;;1.90;;
45206;SDS011;30950;53.086;21.576;2022-09-02T07:55:24;2.85;;;1.67;;
45206;SDS011;30950;53.086;21.576;2022-09-02T07:57:52;1.85;;;1.38;;
45206;SDS011;30950;53.086;21.576;2022-09-02T08:00:22;3.13;;;1.60;;
45206;SDS011;30950;53.086;21.576;2022-09-02T08:02:57;2.72;;;1.58;;
45206;SDS011;30950;53.086;21.576;2022-09-02T08:05:31;2.85;;;1.40;;
45206;SDS011;30950;53.086;21.576;2022-09-02T08:07:59;3.60;;;1.50;;
45206;SDS011;30950;53.086;21.576;2022-09-02T08:10:28;2.45;;;1.40;;
45206;SDS011;30950;53.086;21.576;2022-09-02T08:12:57;6.97;;;1.83;;
45206;SDS011;30950;53.086;21.576;2022-09-02T08:15:28;1.85;;;1.27;;
45206;SDS011;30950;53.086;21.576;2022-09-02T08:17:56;3.47;;;1.33;;
45206;SDS011;30950;53.086;21.576;2022-09-02T08:20:24;2.28;;;1.35;;
45206;SDS011;30950;53.086;21.576;2022-09-02T08:22:52;1.58;;;1.35;;
45206;SDS011;30950;53.086;21.576;2022-09-02T08:25:37;2.20;;;1.50;;
45206;SDS011;30950;53.086;21.576;2022-09-02T08:28:04;2.38;;;1.30;;
45206;SDS011;30950;53.086;21.576;2022-09-02T08:30:32;2.33;;;1.27;;
45206;SDS011;30950;53.086;21.576;2022-09-02T08:33:00;1.50;;;1.13;;
45206;SDS011;30950;53.086;21.576;2022-09-02T08:35:27;3.10;;;1.30;;
45206;SDS011;30950;53.086;21.576;2022-09-02T08:37:57;3.78;;;1.42;;
45206;SDS011;30950;53.086;21.576;2022-09-02T08:40:30;2.45;;;1.63;;
45206;SDS011;30950;53.086;21.576;2022-09-02T08:46:07;3.20;;;1.20;;
45206;SDS011;30950;53.086;21.576;2022-09-02T08:51:17;2.05;;;1.30;;
45206;SDS011;30950;53.086;21.576;2022-09-02T08:53:53;2.58;;;1.10;;
45206;SDS011;30950;53.086;21.576;2022-09-02T08:56:24;2.10;;;1.33;;
45206;SDS011;30950;53.086;21.576;2022-09-02T08:58:53;2.10;;;1.33;;
45206;SDS011;30950;53.086;21.576;2022-09-02T09:09:37;1.83;;;1.25;;
45206;SDS011;30950;53.086;21.576;2022-09-02T09:17:58;1.75;;;1.40;;
45206;SDS011;30950;53.086;21.576;2022-09-02T09:20:33;1.65;;;1.23;;
45206;SDS011;30950;53.086;21.576;2022-09-02T09:23:38;1.60;;;1.25;;
45206;SDS011;30950;53.086;21.576;2022-09-02T09:26:08;1.10;;;1.00;;
45206;SDS011;30950;53.086;21.576;2022-09-02T09:28:42;0.75;;;0.75;;
45206;SDS011;30950;53.086;21.576;2022-09-02T09:31:18;2.45;;;1.52;;
45206;SDS011;30950;53.086;21.576;2022-09-02T09:34:21;1.83;;;1.00;;
45206;SDS011;30950;53.086;21.576;2022-09-02T09:36:42;1.25;;;0.90;;
45206;SDS011;30950;53.086;21.576;2022-09-02T09:39:16;0.90;;;0.90;;
45206;SDS011;30950;53.086;21.576;2022-09-02T09:41:51;1.75;;;1.00;;
45206;SDS011;30950;53.086;21.576;2022-09-02T09:44:53;1.42;;;1.00;;
45206;SDS011;30950;53.086;21.576;2022-09-02T09:47:18;2.30;;;1.00;;
45206;SDS011;30950;53.086;21.576;2022-09-02T09:49:52;1.63;;;0.93;;
45206;SDS011;30950;53.086;21.576;2022-09-02T09:52:35;1.23;;;0.93;;
45206;SDS011;30950;53.086;21.576;2022-09-02T10:00:30;0.95;;;0.80;;
45206;SDS011;30950;53.086;21.576;2022-09-02T10:02:59;1.42;;;1.00;;
45206;SDS011;30950;53.086;21.576;2022-09-02T10:05:32;1.17;;;0.98;;
45206;SDS011;30950;53.086;21.576;2022-09-02T10:08:02;1.45;;;0.80;;
45206;SDS011;30950;53.086;21.576;2022-09-02T10:11:01;0.90;;;0.90;;
45206;SDS011;30950;53.086;21.576;2022-09-02T10:13:32;1.13;;;1.02;;
45206;SDS011;30950;53.086;21.576;2022-09-02T10:16:08;1.08;;;0.80;;
45206;SDS011;30950;53.086;21.576;2022-09-02T10:28:12;0.82;;;0.77;;
45206;SDS011;30950;53.086;21.576;2022-09-02T10:30:54;0.82;;;0.80;;
45206;SDS011;30950;53.086;21.576;2022-09-02T10:38:51;1.85;;;0.80;;
45206;SDS011;30950;53.086;21.576;2022-09-02T10:41:25;0.70;;;0.70;;
45206;SDS011;30950;53.086;21.576;2022-09-02T10:46:33;0.95;;;0.70;;
45206;SDS011;30950;53.086;21.576;2022-09-02T10:52:40;1.45;;;1.00;;
45206;SDS011;30950;53.086;21.576;2022-09-02T10:55:36;1.38;;;1.20;;
45206;SDS011;30950;53.086;21.576;2022-09-02T10:58:39;1.60;;;0.90;;
45206;SDS011;30950;53.086;21.576;2022-09-02T11:01:10;0.88;;;0.70;;
45206;SDS011;30950;53.086;21.576;2022-09-02T11:11:48;0.95;;;0.70;;
45206;SDS011;30950;53.086;21.576;2022-09-02T11:14:26;1.08;;;0.95;;
45206;SDS011;30950;53.086;21.576;2022-09-02T11:22:58;1.40;;;0.80;;
45206;SDS011;30950;53.086;21.576;2022-09-02T11:25:37;2.25;;;0.88;;
45206;SDS011;30950;53.086;21.576;2022-09-02T11:36:17;0.90;;;0.80;;
45206;SDS011;30950;53.086;21.576;2022-09-02T11:41:25;1.65;;;0.93;;
45206;SDS011;30950;53.086;21.576;2022-09-02T11:47:05;0.80;;;0.80;;
45206;SDS011;30950;53.086;21.576;2022-09-02T11:52:44;0.93;;;0.70;;
45206;SDS011;30950;53.086;21.576;2022-09-02T11:55:35;0.95;;;0.85;;
45206;SDS011;30950;53.086;21.576;2022-09-02T11:58:06;1.48;;;1.02;;
45206;SDS011;30950;53.086;21.576;2022-09-02T12:03:22;1.02;;;0.95;;
45206;SDS011;30950;53.086;21.576;2022-09-02T12:06:15;1.40;;;0.63;;
45206;SDS011;30950;53.086;21.576;2022-09-02T12:19:42;5.15;;;1.05;;
45206;SDS011;30950;53.086;21.576;2022-09-02T12:24:49;1.65;;;1.00;;
45206;SDS011;30950;53.086;21.576;2022-09-02T12:27:23;1.45;;;0.98;;
45206;SDS011;30950;53.086;21.576;2022-09-02T12:29:57;0.82;;;0.82;;
45206;SDS011;30950;53.086;21.576;2022-09-02T12:33:00;2.58;;;1.17;;
45206;SDS011;30950;53.086;21.576;2022-09-02T12:35:29;1.45;;;0.80;;
45206;SDS011;30950;53.086;21.576;2022-09-02T12:40:39;1.23;;;1.00;;
45206;SDS011;30950;53.086;21.576;2022-09-02T12:43:22;1.55;;;1.02;;
45206;SDS011;30950;53.086;21.576;2022-09-02T12:46:20;1.20;;;1.10;;
45206;SDS011;30950;53.086;21.576;2022-09-02T12:51:51;1.27;;;0.73;;
45206;SDS011;30950;53.086;21.576;2022-09-02T12:54:29;1.30;;;1.10;;
45206;SDS011;30950;53.086;21.576;2022-09-02T12:57:07;1.00;;;0.88;;
45206;SDS011;30950;53.086;21.576;2022-09-02T12:59:39;1.63;;;0.93;;
45206;SDS011;30950;53.086;21.576;2022-09-02T13:08:11;1.20;;;0.93;;
45206;SDS011;30950;53.086;21.576;2022-09-02T13:27:09;2.38;;;1.10;;
45206;SDS011;30950;53.086;21.576;2022-09-02T13:32:34;1.00;;;0.90;;
45206;SDS011;30950;53.086;21.576;2022-09-02T13:35:04;2.03;;;1.08;;
45206;SDS011;30950;53.086;21.576;2022-09-02T13:37:40;1.48;;;0.90;;
45206;SDS011;30950;53.086;21.576;2022-09-02T13:40:23;1.60;;;0.95;;
45206;SDS011;30950;53.086;21.576;2022-09-02T13:42:57;1.20;;;1.08;;
45206;SDS011;30950;53.086;21.576;2022-09-02T13:45:31;1.30;;;1.00;;
45206;SDS011;30950;53.086;21.576;2022-09-02T13:48:01;1.10;;;0.90;;
45206;SDS011;30950;53.086;21.576;2022-09-02T13:50:40;0.60;;;0.60;;
45206;SDS011;30950;53.086;21.576;2022-09-02T13:53:10;1.23;;;0.70;;
45206;SDS011;30950;53.086;21.576;2022-09-02T13:56:15;1.08;;;0.85;;
45206;SDS011;30950;53.086;21.576;2022-09-02T13:58:50;1.58;;;0.90;;
45206;SDS011;30950;53.086;21.576;2022-09-02T14:01:25;1.25;;;1.00;;
45206;SDS011;30950;53.086;21.576;2022-09-02T14:06:28;3.70;;;1.23;;
45206;SDS011;30950;53.086;21.576;2022-09-02T14:08:59;0.88;;;0.85;;
45206;SDS011;30950;53.086;21.576;2022-09-02T14:11:29;0.70;;;0.70;;
45206;SDS011;30950;53.086;21.576;2022-09-02T14:14:03;1.88;;;0.88;;
45206;SDS011;30950;53.086;21.576;2022-09-02T14:16:32;1.20;;;0.70;;
45206;SDS011;30950;53.086;21.576;2022-09-02T14:19:02;1.35;;;0.80;;
45206;SDS011;30950;53.086;21.576;2022-09-02T14:21:52;3.63;;;0.85;;
45206;SDS011;30950;53.086;21.576;2022-09-02T14:24:25;1.65;;;0.73;;
45206;SDS011;30950;53.086;21.576;2022-09-02T14:26:57;1.17;;;1.08;;
45206;SDS011;30950;53.086;21.576;2022-09-02T14:29:26;1.30;;;0.90;;
45206;SDS011;30950;53.086;21.576;2022-09-02T14:37:24;0.85;;;0.77;;
45206;SDS011;30950;53.086;21.576;2022-09-02T14:40:10;1.70;;;1.02;;
45206;SDS011;30950;53.086;21.576;2022-09-02T14:42:45;0.80;;;0.80;;
45206;SDS011;30950;53.086;21.576;2022-09-02T14:45:30;1.65;;;1.10;;
45206;SDS011;30950;53.086;21.576;2022-09-02T14:48:00;2.17;;;1.30;;
45206;SDS011;30950;53.086;21.576;2022-09-02T14:50:57;4.07;;;1.35;;
45206;SDS011;30950;53.086;21.576;2022-09-02T14:53:28;1.73;;;1.20;;
45206;SDS011;30950;53.086;21.576;2022-09-02T14:55:56;1.90;;;1.40;;
45206;SDS011;30950;53.086;21.576;2022-09-02T14:58:25;3.70;;;1.42;;
45206;SDS011;30950;53.086;21.576;2022-09-02T15:00:55;2.83;;;1.35;;
45206;SDS011;30950;53.086;21.576;2022-09-02T15:03:25;1.08;;;0.90;;
45206;SDS011;30950;53.086;21.576;2022-09-02T15:05:53;5.28;;;1.60;;
45206;SDS011;30950;53.086;21.576;2022-09-02T15:08:20;1.40;;;0.98;;
45206;SDS011;30950;53.086;21.576;2022-09-02T15:10:48;2.10;;;1.42;;
45206;SDS011;30950;53.086;21.576;2022-09-02T15:15:56;1.83;;;1.23;;
45206;SDS011;30950;53.086;21.576;2022-09-02T15:18:24;3.67;;;1.27;;
45206;SDS011;30950;53.086;21.576;2022-09-02T15:20:51;4.22;;;2.00;;
45206;SDS011;30950;53.086;21.576;2022-09-02T15:23:20;4.97;;;1.75;;
45206;SDS011;30950;53.086;21.576;2022-09-02T15:25:48;2.08;;;1.48;;
45206;SDS011;30950;53.086;21.576;2022-09-02T15:28:15;4.35;;;2.20;;
45206;SDS011;30950;53.086;21.576;2022-09-02T15:30:43;3.05;;;1.70;;
45206;SDS011;30950;53.086;21.576;2022-09-02T15:33:10;1.23;;;0.90;;
45206;SDS011;30950;53.086;21.576;2022-09-02T15:35:42;1.00;;;0.90;;
45206;SDS011;30950;53.086;21.576;2022-09-02T15:38:10;0.85;;;0.85;;
45206;SDS011;30950;53.086;21.576;2022-09-02T15:40:38;1.20;;;1.02;;
45206;SDS011;30950;53.086;21.576;2022-09-02T15:43:05;1.00;;;0.90;;
45206;SDS011;30950;53.086;21.576;2022-09-02T15:45:33;1.63;;;0.90;;
45206;SDS011;30950;53.086;21.576;2022-09-02T15:48:00;2.00;;;1.40;;
45206;SDS011;30950;53.086;21.576;2022-09-02T15:50:30;3.17;;;1.45;;
45206;SDS011;30950;53.086;21.576;2022-09-02T15:53:00;5.65;;;1.50;;
45206;SDS011;30950;53.086;21.576;2022-09-02T15:55:30;3.10;;;1.55;;
45206;SDS011;30950;53.086;21.576;2022-09-02T15:57:58;1.67;;;1.00;;
45206;SDS011;30950;53.086;21.576;2022-09-02T16:00:27;1.67;;;0.88;;
45206;SDS011;30950;53.086;21.576;2022-09-02T16:02:58;2.10;;;0.90;;
45206;SDS011;30950;53.086;21.576;2022-09-02T16:05:27;2.45;;;0.85;;
45206;SDS011;30950;53.086;21.576;2022-09-02T16:07:58;2.90;;;1.10;;
45206;SDS011;30950;53.086;21.576;2022-09-02T16:10:25;2.45;;;0.82;;
45206;SDS011;30950;53.086;21.576;2022-09-02T16:12:52;1.55;;;0.98;;
45206;SDS011;30950;53.086;21.576;2022-09-02T16:15:20;2.63;;;1.15;;
45206;SDS011;30950;53.086;21.576;2022-09-02T16:17:47;1.15;;;1.00;;
45206;SDS011;30950;53.086;21.576;2022-09-02T16:20:16;4.05;;;0.90;;
45206;SDS011;30950;53.086;21.576;2022-09-02T16:22:47;2.05;;;1.48;;
45206;SDS011;30950;53.086;21.576;2022-09-02T16:25:14;3.05;;;1.10;;
45206;SDS011;30950;53.086;21.576;2022-09-02T16:27:42;1.65;;;1.23;;
45206;SDS011;30950;53.086;21.576;2022-09-02T16:32:46;6.30;;;2.17;;
45206;SDS011;30950;53.086;21.576;2022-09-02T16:35:16;3.17;;;1.70;;
45206;SDS011;30950;53.086;21.576;2022-09-02T16:37:43;2.90;;;1.88;;
45206;SDS011;30950;53.086;21.576;2022-09-02T16:40:10;3.55;;;2.08;;
45206;SDS011;30950;53.086;21.576;2022-09-02T16:42:46;4.30;;;2.30;;
45206;SDS011;30950;53.086;21.576;2022-09-02T16:45:14;4.15;;;2.10;;
45206;SDS011;30950;53.086;21.576;2022-09-02T16:47:41;4.60;;;1.70;;
45206;SDS011;30950;53.086;21.576;2022-09-02T16:50:09;5.97;;;1.70;;
45206;SDS011;30950;53.086;21.576;2022-09-02T16:52:38;1.73;;;1.33;;
45206;SDS011;30950;53.086;21.576;2022-09-02T16:55:06;3.70;;;1.48;;
45206;SDS011;30950;53.086;21.576;2022-09-02T16:57:34;3.60;;;1.40;;
45206;SDS011;30950;53.086;21.576;2022-09-02T17:00:02;1.35;;;1.15;;
45206;SDS011;30950;53.086;21.576;2022-09-02T17:02:30;2.28;;;1.13;;
45206;SDS011;30950;53.086;21.576;2022-09-02T17:04:57;2.65;;;1.45;;
45206;SDS011;30950;53.086;21.576;2022-09-02T17:07:25;2.38;;;1.25;;
45206;SDS011;30950;53.086;21.576;2022-09-02T17:09:52;1.88;;;1.15;;
45206;SDS011;30950;53.086;21.576;2022-09-02T17:12:19;4.05;;;1.40;;
45206;SDS011;30950;53.086;21.576;2022-09-02T17:14:47;2.42;;;1.52;;
45206;SDS011;30950;53.086;21.576;2022-09-02T17:17:14;4.53;;;2.03;;
45206;SDS011;30950;53.086;21.576;2022-09-02T17:19:42;3.45;;;1.58;;
45206;SDS011;30950;53.086;21.576;2022-09-02T17:22:10;3.03;;;1.60;;
45206;SDS011;30950;53.086;21.576;2022-09-02T17:24:37;4.35;;;1.60;;